Time;durP1;ratioP1;P1;durP2;ratioP2;P2;SDS_P1;SDS_P2;PMS_P1;PMS_P2;Temp;Humidity;BMP_temperature;BMP_pressure;BME280_temperature;BME280_humidity;BME280_pressure;Samples;Min_cycle;Max_cycle;Signal;HPM_P1;HPM_P2
2021/10/05 00:01:04;;;;;;;17.02;12.98;;;;;;;5.14;82.37;102057.18;1732776;81;21192;-71
2021/10/05 00:03:31;;;;;;;17.52;13.13;;;;;;;5.11;82.57;102056.22;1730887;82;21141;-71
2021/10/05 00:05:57;;;;;;;19.05;13.70;;;;;;;5.07;82.77;102065.55;1725859;82;21116;-71
2021/10/05 00:08:24;;;;;;;19.85;14.55;;;;;;;5.05;82.95;102058.28;1731957;81;21050;-71
2021/10/05 00:10:52;;;;;;;20.23;15.20;;;;;;;5.03;83.10;102061.59;1726122;82;21706;-71
2021/10/05 00:13:19;;;;;;;19.00;15.08;;;;;;;5.02;83.24;102063.94;1730405;81;21041;-71
2021/10/05 00:15:46;;;;;;;21.65;16.32;;;;;;;5.00;83.33;102068.11;1733080;80;21080;-71
2021/10/05 00:18:14;;;;;;;22.07;15.30;;;;;;;4.99;83.43;102062.98;1733374;82;21094;-70
2021/10/05 00:20:41;;;;;;;23.62;16.60;;;;;;;4.99;83.51;102064.30;1728533;81;21038;-72
2021/10/05 00:23:08;;;;;;;18.17;15.03;;;;;;;4.99;83.57;102065.12;1703185;81;21100;-70
2021/10/05 00:25:37;;;;;;;20.57;15.80;;;;;;;4.97;83.57;102051.73;1730531;81;21508;-71
2021/10/05 00:28:06;;;;;;;23.87;16.62;;;;;;;4.95;83.62;102054.58;1724948;80;21504;-70
2021/10/05 00:30:33;;;;;;;23.18;16.85;;;;;;;4.93;83.68;102057.90;1722302;80;22274;-70
2021/10/05 00:33:01;;;;;;;23.10;17.23;;;;;;;4.92;83.72;102058.41;1721734;81;21017;-70
2021/10/05 00:35:28;;;;;;;23.00;17.82;;;;;;;4.89;83.78;102054.80;1731811;82;22322;-71
2021/10/05 00:37:56;;;;;;;24.60;18.17;;;;;;;4.87;83.84;102058.15;1736938;80;21085;-70
2021/10/05 00:40:22;;;;;;;20.95;16.37;;;;;;;4.85;83.94;102058.82;1730418;81;21133;-72
2021/10/05 00:42:49;;;;;;;22.20;17.15;;;;;;;4.83;83.99;102062.64;1743277;80;21047;-72
2021/10/05 00:45:16;;;;;;;22.82;17.27;;;;;;;4.83;84.04;102063.97;1739753;80;20999;-71
2021/10/05 00:47:43;;;;;;;22.75;17.40;;;;;;;4.81;84.14;102061.52;1730862;80;21105;-70
2021/10/05 00:50:14;;;;;;;25.23;18.87;;;;;;;4.79;84.19;102062.19;1733318;80;21022;-70
2021/10/05 00:52:41;;;;;;;23.15;17.98;;;;;;;4.77;84.24;102066.86;1729469;81;21029;-69
2021/10/05 00:55:09;;;;;;;23.30;18.00;;;;;;;4.75;84.28;102070.69;1729562;80;21620;-69
2021/10/05 00:57:36;;;;;;;24.15;18.30;;;;;;;4.72;84.42;102069.22;1736631;80;21381;-69
2021/10/05 01:00:07;;;;;;;25.95;19.80;;;;;;;4.71;84.53;102068.91;1740037;80;21157;-72
2021/10/05 01:02:35;;;;;;;24.82;18.45;;;;;;;4.69;84.63;102068.25;1740402;80;21108;-71
2021/10/05 01:05:01;;;;;;;26.42;19.17;;;;;;;4.67;84.69;102068.92;1732657;80;21037;-72
2021/10/05 01:07:28;;;;;;;28.85;19.92;;;;;;;4.63;84.81;102069.78;1733882;80;21093;-72
2021/10/05 01:09:56;;;;;;;26.60;19.35;;;;;;;4.60;85.03;102071.97;1729577;80;21029;-72
2021/10/05 01:12:22;;;;;;;25.23;19.98;;;;;;;4.57;85.29;102078.95;1741262;80;21791;-72
2021/10/05 01:14:49;;;;;;;26.97;19.62;;;;;;;4.57;85.48;102076.30;1729684;81;21097;-72
2021/10/05 01:17:15;;;;;;;26.85;20.43;;;;;;;4.55;85.64;102079.14;1732886;80;21536;-69
2021/10/05 01:19:42;;;;;;;26.93;19.57;;;;;;;4.56;85.81;102077.31;1729833;80;21050;-70
2021/10/05 01:22:09;;;;;;;27.52;19.92;;;;;;;4.53;85.94;102082.45;1742602;80;21065;-71
2021/10/05 01:24:35;;;;;;;26.42;20.32;;;;;;;4.51;86.16;102080.98;1725163;81;21068;-70
2021/10/05 01:27:04;;;;;;;27.90;19.82;;;;;;;4.50;86.31;102082.81;1727165;82;21068;-70
2021/10/05 01:29:32;;;;;;;29.02;22.15;;;;;;;4.50;86.52;102081.48;1727519;80;21063;-70
2021/10/05 01:32:01;;;;;;;27.20;19.77;;;;;;;4.48;86.67;102079.55;1732110;80;21111;-70
2021/10/05 01:34:27;;;;;;;28.38;21.17;;;;;;;4.45;86.83;102077.25;1735695;80;21108;-71
2021/10/05 01:36:58;;;;;;;26.48;20.17;;;;;;;4.43;86.99;102077.41;1730636;80;21156;-70
2021/10/05 01:39:33;;;;;;;26.87;20.23;;;;;;;4.42;87.22;102083.72;1734646;81;21088;-70
2021/10/05 01:42:05;;;;;;;27.85;19.70;;;;;;;4.41;87.41;102087.37;1733803;80;21591;-71
2021/10/05 01:44:33;;;;;;;25.27;19.32;;;;;;;4.40;87.57;102085.70;1733569;80;21113;-70
2021/10/05 01:47:01;;;;;;;26.00;19.30;;;;;;;4.38;87.72;102082.44;1729412;80;21103;-70
2021/10/05 01:49:28;;;;;;;24.30;18.60;;;;;;;4.40;87.90;102088.35;1733322;80;21127;-70
2021/10/05 01:51:55;;;;;;;25.00;16.75;;;;;;;4.40;88.02;102086.21;1733190;80;21670;-71
2021/10/05 01:54:21;;;;;;;28.87;20.57;;;;;;;4.40;88.12;102085.70;1731727;80;21548;-71
2021/10/05 01:56:48;;;;;;;30.05;20.88;;;;;;;4.39;88.28;102085.89;1728879;80;21101;-70
2021/10/05 01:59:16;;;;;;;24.85;18.23;;;;;;;4.39;88.43;102084.58;1734262;80;21049;-71
2021/10/05 02:01:44;;;;;;;26.25;19.57;;;;;;;4.41;88.49;102090.52;1736611;80;21233;-71
2021/10/05 02:04:12;;;;;;;25.25;19.00;;;;;;;4.40;88.55;102090.17;1730955;80;21113;-71
2021/10/05 02:06:40;;;;;;;23.90;18.07;;;;;;;4.40;88.62;102093.64;1725853;82;21096;-71
2021/10/05 02:09:09;;;;;;;24.50;17.35;;;;;;;4.41;88.73;102095.81;1731913;80;21094;-71
2021/10/05 02:11:36;;;;;;;24.23;17.82;;;;;;;4.40;88.81;102101.58;1731277;80;21045;-71
2021/10/05 02:14:03;;;;;;;24.18;18.12;;;;;;;4.41;88.95;102105.07;1728933;80;21154;-71
2021/10/05 02:16:31;;;;;;;27.15;19.32;;;;;;;4.41;89.15;102101.10;1730126;80;21064;-70
2021/10/05 02:18:58;;;;;;;24.52;16.90;;;;;;;4.43;89.38;102109.66;1732195;80;21061;-70
2021/10/05 02:21:25;;;;;;;26.48;18.75;;;;;;;4.43;89.56;102105.19;1732358;80;21137;-70
2021/10/05 02:26:37;;;;;;;25.50;18.82;;;;;;;4.45;89.96;102112.46;1729207;80;22157;-70
2021/10/05 02:29:04;;;;;;;24.57;17.90;;;;;;;4.48;90.16;102113.12;1734876;80;21554;-70
2021/10/05 02:31:33;;;;;;;27.67;19.27;;;;;;;4.48;90.29;102111.29;1734479;80;21069;-70
2021/10/05 02:34:01;;;;;;;27.50;19.20;;;;;;;4.49;90.45;102109.47;1734312;80;21057;-70
2021/10/05 02:36:28;;;;;;;24.85;18.98;;;;;;;4.49;90.71;102108.14;1734302;80;21017;-70
2021/10/05 02:38:55;;;;;;;27.05;19.70;;;;;;;4.51;90.94;102114.05;1738357;80;21283;-70
2021/10/05 02:41:22;;;;;;;25.00;18.00;;;;;;;4.53;91.02;102117.36;1751017;80;21084;-70
2021/10/05 02:43:49;;;;;;;25.32;19.02;;;;;;;4.54;91.09;102117.20;1721592;81;21049;-70
2021/10/05 02:46:16;;;;;;;24.98;18.40;;;;;;;4.53;91.18;102120.82;1714432;82;21026;-70
2021/10/05 02:48:43;;;;;;;29.27;20.32;;;;;;;4.54;91.34;102121.64;1706426;82;21100;-70
2021/10/05 02:51:16;;;;;;;25.60;17.77;;;;;;;4.54;91.40;102126.45;1722472;81;21271;-70
2021/10/05 02:53:52;;;;;;;28.73;19.48;;;;;;;4.53;91.48;102124.80;1725930;81;21066;-71
2021/10/05 02:56:21;;;;;;;25.35;19.25;;;;;;;4.55;91.58;102132.56;1720263;81;21014;-71
2021/10/05 02:58:48;;;;;;;30.82;19.95;;;;;;;4.55;91.63;102131.25;1707751;82;21108;-71
2021/10/05 03:01:15;;;;;;;25.85;17.70;;;;;;;4.55;91.65;102129.92;1723204;81;21145;-71
2021/10/05 03:03:42;;;;;;;25.50;18.12;;;;;;;4.53;91.66;102127.95;1748986;81;21189;-71
2021/10/05 03:06:10;;;;;;;26.65;18.10;;;;;;;4.51;91.65;102132.11;1750395;80;21037;-70
2021/10/05 03:08:40;;;;;;;27.50;19.07;;;;;;;4.50;91.66;102129.63;1723653;81;21520;-70
2021/10/05 03:11:05;;;;;;;27.02;18.02;;;;;;;4.49;91.71;102131.45;1727662;81;21101;-72
2021/10/05 03:13:35;;;;;;;25.37;17.57;;;;;;;4.49;91.78;102130.63;1716033;81;21008;-70
2021/10/05 03:16:05;;;;;;;25.35;17.73;;;;;;;4.49;91.79;102129.30;1725249;82;21536;-70
2021/10/05 03:18:33;;;;;;;28.60;19.15;;;;;;;4.48;91.75;102132.45;1726433;80;21091;-71
2021/10/05 03:21:00;;;;;;;25.95;18.02;;;;;;;4.48;91.76;102139.58;1735892;80;21073;-71
2021/10/05 03:23:28;;;;;;;30.88;20.88;;;;;;;4.45;91.80;102136.27;1739699;80;21093;-70
2021/10/05 03:25:55;;;;;;;26.80;19.70;;;;;;;4.44;91.83;102137.28;1729717;80;21075;-70
2021/10/05 03:28:22;;;;;;;26.00;18.80;;;;;;;4.42;91.90;102137.13;1753771;80;21653;-70
2021/10/05 03:30:49;;;;;;;24.50;18.17;;;;;;;4.42;91.89;102137.95;1728908;80;21040;-70
2021/10/05 03:33:16;;;;;;;25.20;17.90;;;;;;;4.42;91.90;102142.42;1733550;80;21046;-70
2021/10/05 03:35:44;;;;;;;27.75;19.35;;;;;;;4.40;91.89;102145.23;1739655;80;21057;-70
2021/10/05 03:38:11;;;;;;;24.52;17.17;;;;;;;4.38;91.91;102139.31;1733884;80;21661;-70
2021/10/05 03:40:39;;;;;;;25.60;18.35;;;;;;;4.38;91.94;102139.31;1734932;80;21571;-71
2021/10/05 03:43:07;;;;;;;26.15;17.87;;;;;;;4.38;91.92;102145.92;1715213;81;21719;-70
2021/10/05 03:45:50;;;;;;;26.23;18.42;;;;;;;4.36;91.91;102146.59;1725889;81;21215;-71
2021/10/05 03:48:18;;;;;;;24.70;16.52;;;;;;;4.35;91.90;102148.92;1726096;81;21552;-70
2021/10/05 03:50:52;;;;;;;25.05;17.07;;;;;;;4.34;91.90;102149.08;1749140;80;21056;-70
2021/10/05 03:53:20;;;;;;;26.02;17.85;;;;;;;4.32;91.89;102154.56;1738449;80;21145;-70
2021/10/05 03:55:53;;;;;;;25.97;17.73;;;;;;;4.30;91.90;102157.05;1745671;80;21090;-70
2021/10/05 03:58:21;;;;;;;26.15;17.57;;;;;;;4.27;91.95;102156.08;1749382;80;21638;-71
2021/10/05 04:00:48;;;;;;;24.82;17.45;;;;;;;4.26;92.05;102157.91;1745967;80;21052;-71
2021/10/05 04:03:15;;;;;;;25.27;16.25;;;;;;;4.25;92.10;102159.42;1742968;80;21090;-71
2021/10/05 04:05:42;;;;;;;27.07;18.07;;;;;;;4.25;92.16;102167.35;1743712;80;21098;-71
2021/10/05 04:08:09;;;;;;;24.25;16.50;;;;;;;4.25;92.23;102163.38;1721991;81;21531;-71
2021/10/05 04:10:37;;;;;;;31.57;20.68;;;;;;;4.23;92.27;102169.66;1726478;80;22188;-71
2021/10/05 04:13:06;;;;;;;24.65;17.67;;;;;;;4.26;92.30;102172.45;1730226;80;21121;-71
2021/10/05 04:15:33;;;;;;;29.25;19.60;;;;;;;4.26;92.31;102170.31;1726811;80;21171;-71
2021/10/05 04:18:00;;;;;;;25.72;17.80;;;;;;;4.27;92.32;102165.34;1743042;80;21152;-71
2021/10/05 04:20:28;;;;;;;27.13;18.05;;;;;;;4.28;92.38;102169.14;1728927;82;21044;-71
2021/10/05 04:22:55;;;;;;;27.60;19.05;;;;;;;4.28;92.42;102169.14;1724236;81;21316;-71
2021/10/05 04:25:22;;;;;;;29.23;20.23;;;;;;;4.28;92.46;102171.79;1711569;83;21590;-71
2021/10/05 04:27:49;;;;;;;27.82;19.50;;;;;;;4.29;92.54;102172.11;1710651;82;21057;-72
2021/10/05 04:30:16;;;;;;;29.30;19.35;;;;;;;4.30;92.63;102171.09;1746419;80;21077;-70
2021/10/05 04:32:43;;;;;;;29.48;20.32;;;;;;;4.32;92.74;102181.02;1756494;80;21074;-71
2021/10/05 04:35:10;;;;;;;28.57;19.12;;;;;;;4.36;92.84;102178.84;1747954;81;21571;-71
2021/10/05 04:37:37;;;;;;;27.98;18.75;;;;;;;4.37;92.93;102178.65;1734308;81;21053;-71
2021/10/05 04:40:06;;;;;;;29.23;20.02;;;;;;;4.42;92.99;102183.43;1733379;81;21317;-71
2021/10/05 04:42:34;;;;;;;29.30;18.57;;;;;;;4.45;93.04;102178.61;1726499;81;21215;-72
2021/10/05 04:45:01;;;;;;;28.50;20.57;;;;;;;4.50;93.05;102179.89;1752326;80;21145;-72
2021/10/05 04:47:29;;;;;;;29.27;19.80;;;;;;;4.54;93.09;102186.00;1743394;80;21039;-72
2021/10/05 04:49:56;;;;;;;28.42;19.05;;;;;;;4.58;93.17;102187.78;1731579;81;21099;-72
2021/10/05 04:52:23;;;;;;;27.35;18.85;;;;;;;4.63;93.23;102194.67;1732423;81;21058;-72
2021/10/05 04:54:50;;;;;;;29.67;20.45;;;;;;;4.69;93.31;102192.65;1730936;81;21058;-72
2021/10/05 04:57:17;;;;;;;28.38;19.05;;;;;;;4.73;93.34;102195.26;1722223;81;21113;-72
2021/10/05 04:59:44;;;;;;;31.27;20.10;;;;;;;4.80;93.37;102201.48;1732248;81;21040;-72
2021/10/05 05:02:11;;;;;;;25.65;17.17;;;;;;;4.85;93.41;102201.78;1734997;81;21121;-72
2021/10/05 05:04:38;;;;;;;29.52;20.15;;;;;;;4.91;93.45;102203.72;1733168;81;21032;-72
2021/10/05 05:07:05;;;;;;;32.70;20.82;;;;;;;4.98;93.51;102204.33;1730452;81;22212;-71
2021/10/05 05:09:33;;;;;;;31.05;22.15;;;;;;;5.05;93.55;102203.42;1724916;81;21504;-72
2021/10/05 05:12:01;;;;;;;27.22;18.75;;;;;;;5.11;93.61;102206.69;1729929;81;21033;-72
2021/10/05 05:14:29;;;;;;;27.58;18.30;;;;;;;5.19;93.60;102211.07;1726627;81;21603;-72
2021/10/05 05:16:57;;;;;;;29.18;20.35;;;;;;;5.25;93.60;102208.20;1727548;81;21097;-72
2021/10/05 05:19:24;;;;;;;30.05;20.08;;;;;;;5.30;93.55;102208.50;1728558;81;21148;-72
2021/10/05 05:21:51;;;;;;;29.48;19.82;;;;;;;5.37;93.54;102217.37;1725395;81;21101;-72
2021/10/05 05:24:18;;;;;;;29.95;21.68;;;;;;;5.45;93.53;102215.12;1724414;82;21178;-72
2021/10/05 05:26:45;;;;;;;29.98;20.32;;;;;;;5.53;93.46;102225.66;1726880;81;21089;-72
2021/10/05 05:29:12;;;;;;;28.83;20.27;;;;;;;5.59;93.38;102223.57;1730065;81;20992;-71
2021/10/05 05:31:41;;;;;;;30.50;20.27;;;;;;;5.68;93.29;102222.48;1725389;82;21588;-71
2021/10/05 05:34:09;;;;;;;27.90;19.07;;;;;;;5.76;93.16;102226.85;1729647;81;21073;-72
2021/10/05 05:36:36;;;;;;;28.23;20.25;;;;;;;5.82;93.00;102237.58;1729984;81;21077;-72
2021/10/05 05:39:04;;;;;;;30.88;20.90;;;;;;;5.90;92.92;102234.50;1727922;81;21597;-72
2021/10/05 05:41:31;;;;;;;31.90;20.27;;;;;;;5.97;92.75;102243.39;1729203;81;21046;-72
2021/10/05 05:43:58;;;;;;;27.05;19.50;;;;;;;6.03;92.59;102241.33;1726909;81;21863;-71
2021/10/05 05:46:25;;;;;;;28.20;20.10;;;;;;;6.11;92.38;102243.35;1726472;81;21089;-71
2021/10/05 05:48:52;;;;;;;29.52;20.08;;;;;;;6.20;92.21;102248.06;1724342;81;21056;-71
2021/10/05 05:51:19;;;;;;;28.07;19.95;;;;;;;6.29;92.04;102244.30;1730630;81;21028;-69
2021/10/05 05:53:47;;;;;;;26.27;19.48;;;;;;;6.36;91.79;102246.20;1729674;81;21049;-70
2021/10/05 05:56:14;;;;;;;28.27;20.50;;;;;;;6.44;91.55;102254.03;1730170;81;21729;-69
2021/10/05 05:58:42;;;;;;;30.35;20.75;;;;;;;6.50;91.29;102248.80;1733309;81;21081;-70
2021/10/05 06:01:09;;;;;;;29.72;20.15;;;;;;;6.57;91.00;102258.98;1733747;81;21063;-70
2021/10/05 06:03:36;;;;;;;25.17;18.40;;;;;;;6.67;90.77;102257.34;1737071;81;21125;-70
2021/10/05 06:06:04;;;;;;;29.27;19.95;;;;;;;6.76;90.55;102248.75;1734352;81;22337;-70
2021/10/05 06:08:32;;;;;;;30.68;20.95;;;;;;;6.86;90.29;102242.62;1734066;81;21185;-70
2021/10/05 06:10:59;;;;;;;26.68;19.57;;;;;;;6.96;90.05;102250.27;1709344;82;21112;-69
2021/10/05 06:13:27;;;;;;;28.23;20.10;;;;;;;7.06;89.68;102249.42;1733946;81;21034;-71
2021/10/05 06:15:55;;;;;;;27.27;19.75;;;;;;;7.16;89.13;102249.09;1730479;81;21627;-71
2021/10/05 06:18:22;;;;;;;25.62;19.00;;;;;;;7.24;88.91;102247.13;1736591;81;21006;-71
2021/10/05 06:20:49;;;;;;;24.72;18.87;;;;;;;7.34;88.01;102255.25;1737512;81;21788;-71
2021/10/05 06:23:16;;;;;;;28.20;19.48;;;;;;;7.39;87.57;102251.52;1729271;81;21140;-70
2021/10/05 06:25:44;;;;;;;27.30;17.70;;;;;;;7.46;87.34;102253.70;1740660;81;21043;-70
2021/10/05 06:28:11;;;;;;;26.60;18.60;;;;;;;7.59;87.01;102256.97;1734702;81;21072;-70
2021/10/05 06:30:38;;;;;;;27.17;19.57;;;;;;;7.66;86.40;102256.48;1732041;81;21115;-70
2021/10/05 06:33:05;;;;;;;25.12;17.45;;;;;;;7.77;86.03;102255.14;1732444;81;21859;-72
2021/10/05 06:35:32;;;;;;;23.45;18.07;;;;;;;7.87;85.92;102264.40;1731569;81;21655;-72
2021/10/05 06:38:01;;;;;;;28.35;20.12;;;;;;;8.03;85.68;102265.06;1735185;81;21755;-71
2021/10/05 06:40:31;;;;;;;24.40;17.77;;;;;;;8.15;84.95;102266.97;1727171;81;21500;-71
2021/10/05 06:42:59;;;;;;;26.42;19.37;;;;;;;8.23;84.28;102258.82;1725391;82;21116;-71
2021/10/05 06:45:27;;;;;;;22.42;16.85;;;;;;;8.31;83.83;102262.32;1732462;81;22204;-71
2021/10/05 06:47:54;;;;;;;27.67;19.17;;;;;;;8.43;83.50;102270.08;1722240;81;21029;-71
2021/10/05 06:50:21;;;;;;;23.57;17.62;;;;;;;8.54;82.84;102266.82;1726742;81;21070;-71
2021/10/05 06:52:48;;;;;;;24.20;18.98;;;;;;;8.64;82.43;102268.58;1735148;81;21108;-71
2021/10/05 06:55:15;;;;;;;22.73;17.65;;;;;;;8.72;81.88;102263.59;1728034;81;21139;-71
2021/10/05 06:57:42;;;;;;;24.27;18.27;;;;;;;8.83;81.38;102266.16;1722224;81;21225;-70
2021/10/05 07:00:15;;;;;;;23.47;17.32;;;;;;;8.92;81.11;102267.61;1721526;82;21070;-70
2021/10/05 07:02:46;;;;;;;20.57;16.05;;;;;;;9.08;80.95;102262.38;1720503;82;21113;-71
2021/10/05 07:05:15;;;;;;;23.67;16.65;;;;;;;9.22;80.60;102262.70;1731690;81;21026;-71
2021/10/05 07:07:44;;;;;;;22.70;17.10;;;;;;;9.33;80.03;102256.73;1727952;81;21179;-72
2021/10/05 07:10:13;;;;;;;20.80;15.10;;;;;;;9.49;79.60;102261.33;1731019;81;21164;-71
2021/10/05 07:12:41;;;;;;;23.67;16.77;;;;;;;9.62;79.25;102259.98;1731259;82;21077;-72
2021/10/05 07:15:09;;;;;;;23.27;17.82;;;;;;;9.74;78.72;102255.64;1723117;81;21009;-71
2021/10/05 07:17:36;;;;;;;22.85;17.50;;;;;;;9.85;78.19;102256.84;1724137;81;21049;-71
2021/10/05 07:20:04;;;;;;;17.30;14.10;;;;;;;9.94;77.57;102259.58;1730428;81;21039;-72
2021/10/05 07:22:33;;;;;;;23.22;17.23;;;;;;;10.07;77.07;102260.05;1727212;81;21957;-72
2021/10/05 07:25:00;;;;;;;23.42;17.40;;;;;;;10.18;76.63;102260.70;1727513;81;21108;-70
2021/10/05 07:27:27;;;;;;;23.00;18.00;;;;;;;10.30;76.12;102263.05;1735740;81;21054;-72
2021/10/05 07:29:54;;;;;;;22.58;18.15;;;;;;;10.41;75.40;102262.08;1726253;81;21606;-71
2021/10/05 07:32:21;;;;;;;23.83;17.85;;;;;;;10.46;74.64;102259.07;1730646;81;21053;-70
2021/10/05 07:34:48;;;;;;;23.00;17.20;;;;;;;10.48;74.15;102266.34;1732766;81;21313;-71
2021/10/05 07:37:15;;;;;;;22.60;16.90;;;;;;;10.52;74.09;102267.54;1729967;81;21057;-72
2021/10/05 07:39:42;;;;;;;23.50;16.77;;;;;;;10.62;73.85;102272.41;1731232;81;21148;-72
2021/10/05 07:42:10;;;;;;;18.32;14.70;;;;;;;10.75;73.71;102266.98;1724133;81;21742;-72
2021/10/05 07:44:37;;;;;;;20.40;15.25;;;;;;;10.88;73.17;102266.59;1724669;80;21026;-74
2021/10/05 07:47:04;;;;;;;24.63;16.70;;;;;;;10.96;72.67;102272.51;1720160;81;21124;-72
2021/10/05 07:49:33;;;;;;;20.17;15.57;;;;;;;11.04;72.66;102269.55;1718295;80;21341;-72
2021/10/05 07:52:08;;;;;;;24.20;16.07;;;;;;;11.19;72.16;102266.56;1700823;82;21388;-74
2021/10/05 07:54:42;;;;;;;21.17;16.62;;;;;;;11.34;72.01;102270.23;1732482;81;21538;-70
2021/10/05 07:57:08;;;;;;;23.23;17.77;;;;;;;11.51;71.72;102272.62;1736065;81;21072;-73
2021/10/05 07:59:36;;;;;;;18.37;14.33;;;;;;;11.68;71.27;102268.03;1736249;81;21992;-72
2021/10/05 08:02:03;;;;;;;23.13;17.43;;;;;;;11.78;70.35;102266.18;1734925;81;21806;-72
2021/10/05 08:04:30;;;;;;;18.50;15.27;;;;;;;11.85;69.53;102266.98;1737633;81;21034;-74
2021/10/05 08:06:57;;;;;;;18.93;14.17;;;;;;;11.90;69.20;102270.60;1739874;81;21282;-71
2021/10/05 08:09:24;;;;;;;18.23;14.23;;;;;;;12.04;68.99;102266.43;1750600;81;21265;-73
2021/10/05 08:11:51;;;;;;;20.20;14.37;;;;;;;12.21;68.86;102276.84;1734757;82;21950;-72
2021/10/05 08:14:17;;;;;;;18.37;13.57;;;;;;;12.39;68.57;102271.44;1730445;81;21257;-72
2021/10/05 08:16:45;;;;;;;18.50;14.13;;;;;;;12.58;67.79;102274.08;1739075;81;21297;-73
2021/10/05 08:19:12;;;;;;;15.57;13.07;;;;;;;12.68;66.45;102270.32;1728395;80;21680;-72
2021/10/05 08:21:39;;;;;;;17.30;13.43;;;;;;;12.69;65.45;102270.61;1726556;81;21296;-73
2021/10/05 08:24:05;;;;;;;18.67;14.20;;;;;;;12.72;65.45;102267.47;1722203;81;21333;-71
2021/10/05 08:26:32;;;;;;;17.33;13.90;;;;;;;12.81;65.30;102266.09;1713153;81;21356;-72
2021/10/05 08:28:59;;;;;;;15.13;12.60;;;;;;;12.92;65.13;102265.82;1729340;81;21251;-73
2021/10/05 08:31:26;;;;;;;17.43;13.27;;;;;;;13.03;64.18;102272.24;1727913;81;21252;-72
2021/10/05 08:33:53;;;;;;;16.87;13.10;;;;;;;13.10;63.24;102263.59;1727676;82;21509;-70
2021/10/05 08:36:20;;;;;;;16.77;12.87;;;;;;;13.13;63.14;102263.13;1735509;81;21389;-72
2021/10/05 08:38:46;;;;;;;17.60;13.53;;;;;;;13.21;62.99;102257.93;1733494;81;22355;-70
2021/10/05 08:41:13;;;;;;;17.77;12.97;;;;;;;13.31;62.62;102256.32;1726187;81;21378;-71
2021/10/05 08:43:42;;;;;;;15.17;12.03;;;;;;;13.42;62.31;102257.89;1727379;81;21291;-71
2021/10/05 08:46:09;;;;;;;16.73;12.57;;;;;;;13.48;61.79;102256.96;1725349;81;21853;-71
2021/10/05 08:48:38;;;;;;;16.97;12.43;;;;;;;13.57;61.54;102255.55;1723665;81;21443;-72
2021/10/05 08:51:05;;;;;;;14.70;12.30;;;;;;;13.76;60.39;102259.73;1746965;81;22026;-72
2021/10/05 08:53:37;;;;;;;16.00;13.17;;;;;;;13.76;60.39;102259.73;1721311;81;21445;-71
2021/10/05 08:56:08;;;;;;;16.73;12.82;;;;;;;13.83;60.53;102255.05;1726185;82;21406;-72
2021/10/05 08:58:35;;;;;;;15.23;12.23;;;;;;;13.96;60.37;102255.30;1724278;82;21102;-72
2021/10/05 09:01:14;;;;;;;15.30;12.10;;;;;;;14.07;59.26;102259.00;1735160;81;22031;-72
2021/10/05 09:03:53;;;;;;;22.67;11.50;;;;;;;14.13;59.14;102257.25;1727219;82;22048;-73
2021/10/05 09:06:21;;;;;;;15.73;11.33;;;;;;;14.19;58.55;102250.92;1730875;81;21745;-73
2021/10/05 09:08:49;;;;;;;12.83;10.33;;;;;;;14.26;58.13;102255.09;1723801;82;21597;-73
2021/10/05 09:11:18;;;;;;;15.00;10.73;;;;;;;14.35;57.34;102254.72;1731319;81;21731;-74
2021/10/05 09:13:48;;;;;;;14.70;11.20;;;;;;;14.38;57.46;102253.70;1734602;81;21751;-74
2021/10/05 09:16:27;;;;;;;12.80;10.60;;;;;;;14.40;56.62;102257.48;1729705;81;21742;-72
2021/10/05 09:19:04;;;;;;;12.77;10.70;;;;;;;14.42;56.76;102236.03;1721982;81;21801;-72
2021/10/05 09:21:38;;;;;;;13.67;10.70;;;;;;;14.50;56.90;102248.25;1734250;82;22356;-73
2021/10/05 09:24:13;;;;;;;12.80;9.60;;;;;;;14.61;56.86;102249.27;1740638;81;21827;-74
2021/10/05 09:26:52;;;;;;;13.53;10.13;;;;;;;14.71;55.85;102254.32;1714023;81;21702;-72
2021/10/05 09:29:26;;;;;;;12.53;9.70;;;;;;;14.85;56.01;102255.34;1733279;81;21723;-73
2021/10/05 09:32:03;;;;;;;11.73;9.37;;;;;;;15.01;55.54;102250.50;1700431;82;21838;-71
2021/10/05 09:34:50;;;;;;;14.37;11.23;;;;;;;15.10;54.19;102257.08;1728817;81;21785;-73
2021/10/05 09:37:27;;;;;;;11.40;8.93;;;;;;;15.06;53.66;102251.91;1730957;81;21712;-73
2021/10/05 09:40:08;;;;;;;12.17;9.10;;;;;;;15.08;54.70;102247.64;1721621;81;22161;-73
2021/10/05 09:42:41;;;;;;;11.53;9.58;;;;;;;15.23;54.22;102243.31;1735010;82;21705;-72
2021/10/05 09:45:12;;;;;;;11.73;9.10;;;;;;;15.41;53.97;102234.66;1734881;81;21531;-74
2021/10/05 09:47:52;;;;;;;11.93;8.70;;;;;;;15.56;53.33;102242.93;1707911;82;21839;-72
2021/10/05 09:50:29;;;;;;;12.50;8.57;;;;;;;15.68;52.52;102236.94;1731101;81;21741;-71
2021/10/05 09:53:01;;;;;;;14.83;7.90;;;;;;;15.80;51.94;102228.74;1735097;82;21070;-71
2021/10/05 09:55:33;;;;;;;10.07;7.73;;;;;;;15.92;51.50;102229.41;1732467;81;21756;-74
2021/10/05 09:58:00;;;;;;;12.13;8.30;;;;;;;16.05;51.14;102230.90;1725488;81;22911;-73
2021/10/05 10:00:30;;;;;;;12.63;8.33;;;;;;;16.21;50.83;102222.45;1733463;81;21030;-73
2021/10/05 10:02:59;;;;;;;11.23;7.87;;;;;;;16.21;50.83;102222.45;1735279;81;21602;-73
2021/10/05 10:05:37;;;;;;;9.78;7.95;;;;;;;16.30;49.89;102224.16;1734408;81;21145;-72
2021/10/05 10:08:29;;;;;;;14.00;9.27;;;;;;;16.39;49.25;102219.95;1705242;81;21104;-74
2021/10/05 10:10:57;;;;;;;11.97;8.33;;;;;;;16.38;48.90;102222.34;1735960;81;21073;-75
2021/10/05 10:13:24;;;;;;;13.27;8.07;;;;;;;16.33;49.07;102228.52;1730939;81;21151;-72
2021/10/05 10:15:52;;;;;;;9.60;7.97;;;;;;;16.39;48.62;102236.13;1727647;81;21072;-72
2021/10/05 10:18:19;;;;;;;10.93;7.07;;;;;;;16.47;48.05;102236.19;1676597;82;21321;-72
2021/10/05 10:21:05;;;;;;;11.07;8.00;;;;;;;16.55;47.48;102226.27;1728105;81;21076;-74
2021/10/05 10:23:32;;;;;;;10.97;7.80;;;;;;;16.64;47.48;102221.50;1720801;81;21258;-73
2021/10/05 10:26:10;;;;;;;10.30;7.87;;;;;;;16.73;47.51;102217.00;1738200;81;21077;-72
2021/10/05 10:28:41;;;;;;;12.90;7.43;;;;;;;16.73;47.36;102217.80;1722542;81;21076;-72
2021/10/05 10:31:29;;;;;;;10.67;7.40;;;;;;;16.72;47.29;102220.23;1726033;81;22260;-72
2021/10/05 10:33:56;;;;;;;11.43;7.63;;;;;;;16.71;47.19;102218.59;1722765;81;21064;-72
2021/10/05 10:36:42;;;;;;;11.93;8.27;;;;;;;16.71;47.46;102211.03;1732192;81;21670;-72
2021/10/05 10:39:16;;;;;;;11.90;7.13;;;;;;;16.71;46.74;102205.09;1737474;81;21703;-73
2021/10/05 10:41:57;;;;;;;11.07;7.50;;;;;;;16.72;46.25;102195.14;1729763;81;21608;-72
2021/10/05 10:44:34;;;;;;;8.63;6.50;;;;;;;16.77;46.32;102193.84;1725690;81;21381;-72
2021/10/05 10:47:17;;;;;;;7.60;5.33;;;;;;;16.83;46.26;102190.12;1739773;81;21030;-71
2021/10/05 10:49:59;;;;;;;7.00;5.53;;;;;;;17.01;45.41;102195.63;1725115;81;21572;-70
2021/10/05 10:52:28;;;;;;;9.50;6.83;;;;;;;17.13;44.71;102186.80;1726724;82;21521;-71
2021/10/05 10:54:55;;;;;;;9.40;6.40;;;;;;;17.15;44.68;102189.26;1723816;81;21084;-73
2021/10/05 10:57:43;;;;;;;9.07;6.87;;;;;;;17.07;44.92;102195.40;1730261;81;21854;-74
2021/10/05 11:00:25;;;;;;;9.50;6.50;;;;;;;16.97;44.85;102196.69;1732709;81;21096;-73
2021/10/05 11:02:54;;;;;;;8.15;5.90;;;;;;;16.83;45.20;102196.33;1723378;82;21075;-73
2021/10/05 11:05:24;;;;;;;9.50;6.10;;;;;;;16.74;45.41;102193.79;1728186;81;21033;-74
2021/10/05 11:07:58;;;;;;;9.10;7.00;;;;;;;16.59;45.56;102183.70;1725192;81;21101;-72
2021/10/05 11:10:32;;;;;;;9.07;6.43;;;;;;;16.39;45.83;102182.19;1745338;80;21111;-71
2021/10/05 11:13:03;;;;;;;9.17;6.80;;;;;;;16.27;46.31;102189.63;1723405;82;21085;-71
2021/10/05 11:15:38;;;;;;;8.63;6.77;;;;;;;16.11;46.41;102195.39;1734757;80;21162;-72
2021/10/05 11:18:13;;;;;;;8.30;6.10;;;;;;;16.07;47.52;102187.00;1735045;80;21274;-71
2021/10/05 11:20:45;;;;;;;10.73;6.40;;;;;;;16.20;47.99;102187.67;1749248;80;21103;-72
2021/10/05 11:23:11;;;;;;;9.48;6.90;;;;;;;16.42;46.97;102183.03;1692857;82;22123;-73
2021/10/05 11:25:55;;;;;;;9.77;6.03;;;;;;;16.63;47.04;102180.77;1717908;82;21057;-72
2021/10/05 11:28:25;;;;;;;6.90;5.83;;;;;;;16.82;46.00;102170.96;1734010;81;21023;-71